Terminal Aerodrome Forecast
Issued by NWS

Home | Current Version | Previous Version | Graphics & Text | Print | Product List | Glossary On
Versions: 1 2 3 4 5 6 7 8 9 10 11 12 13
000
FTUS43 KIWX 232339 AAB
TAFSBN
TAF AMD
KSBN 232339Z 2400/2424 03006KT P6SM BKN020
     FM240500 06006KT P6SM OVC015
     FM241000 08006KT 6SM BR OVC010
      TEMPO 2410/2413 4SM BR OVC006
     FM241500 10008KT P6SM OVC015
     FM241800 11008KT P6SM BKN025=

USA.gov is the U.S. government's official web portal to all federal, state and local government web resources and services.